sensor_id;sensor_type;location;lat;lon;timestamp;pressure;altitude;pressure_sealevel;temperature;humidity
60852;BME280;48553;50.766;2.900;2023-03-14T00:01:13;98361.72;;;11.07;79.86
60852;BME280;48553;50.766;2.900;2023-03-14T00:04:14;98342.97;;;11.02;80.02
60852;BME280;48553;50.766;2.900;2023-03-14T00:07:15;98346.84;;;11.01;80.27
60852;BME280;48553;50.766;2.900;2023-03-14T00:10:15;98351.56;;;11.04;80.12
60852;BME280;48553;50.766;2.900;2023-03-14T00:13:16;98351.19;;;11.02;80.22
60852;BME280;48553;50.766;2.900;2023-03-14T00:16:16;98339.44;;;11.01;80.35
60852;BME280;48553;50.766;2.900;2023-03-14T00:19:17;98336.69;;;10.98;80.56
60852;BME280;48553;50.766;2.900;2023-03-14T00:22:18;98332.38;;;10.97;80.47
60852;BME280;48553;50.766;2.900;2023-03-14T00:25:18;98331.59;;;10.96;80.72
60852;BME280;48553;50.766;2.900;2023-03-14T00:28:19;98332.38;;;10.97;80.66
60852;BME280;48553;50.766;2.900;2023-03-14T00:31:19;98330.06;;;10.95;80.69
60852;BME280;48553;50.766;2.900;2023-03-14T00:34:20;98339.44;;;10.98;80.82
60852;BME280;48553;50.766;2.900;2023-03-14T00:37:20;98331.63;;;10.93;80.91
60852;BME280;48553;50.766;2.900;2023-03-14T00:40:21;98323.81;;;10.95;81.12
60852;BME280;48553;50.766;2.900;2023-03-14T00:43:22;98308.13;;;10.92;81.21
60852;BME280;48553;50.766;2.900;2023-03-14T00:46:22;98312.06;;;10.91;81.29
60852;BME280;48553;50.766;2.900;2023-03-14T00:49:23;98311.69;;;10.89;81.20
60852;BME280;48553;50.766;2.900;2023-03-14T00:52:23;98308.56;;;10.90;81.24
60852;BME280;48553;50.766;2.900;2023-03-14T00:55:24;98298.00;;;10.85;81.68
60852;BME280;48553;50.766;2.900;2023-03-14T00:58:25;98290.56;;;10.85;81.41
60852;BME280;48553;50.766;2.900;2023-03-14T01:01:25;98287.41;;;10.87;81.51
60852;BME280;48553;50.766;2.900;2023-03-14T01:04:26;98290.56;;;10.85;81.53
60852;BME280;48553;50.766;2.900;2023-03-14T01:07:26;98297.59;;;10.83;81.67
60852;BME280;48553;50.766;2.900;2023-03-14T01:10:27;98300.38;;;10.79;81.82
60852;BME280;48553;50.766;2.900;2023-03-14T01:13:27;98298.03;;;10.81;81.76
60852;BME280;48553;50.766;2.900;2023-03-14T01:16:30;98298.78;;;10.78;81.92
60852;BME280;48553;50.766;2.900;2023-03-14T01:19:31;98301.53;;;10.78;82.17
60852;BME280;48553;50.766;2.900;2023-03-14T01:22:31;98305.47;;;10.77;82.06
60852;BME280;48553;50.766;2.900;2023-03-14T01:25:32;98294.13;;;10.75;82.22
60852;BME280;48553;50.766;2.900;2023-03-14T01:28:32;98293.34;;;10.75;82.05
60852;BME280;48553;50.766;2.900;2023-03-14T01:31:33;98281.19;;;10.76;82.30
60852;BME280;48553;50.766;2.900;2023-03-14T01:34:33;98281.22;;;10.72;82.78
60852;BME280;48553;50.766;2.900;2023-03-14T01:37:34;98274.56;;;10.73;82.97
60852;BME280;48553;50.766;2.900;2023-03-14T01:40:41;98278.09;;;10.70;83.09
60852;BME280;48553;50.766;2.900;2023-03-14T01:43:42;98285.53;;;10.66;83.39
60852;BME280;48553;50.766;2.900;2023-03-14T01:46:46;98285.53;;;10.70;83.09
60852;BME280;48553;50.766;2.900;2023-03-14T01:49:51;98284.34;;;10.71;83.19
60852;BME280;48553;50.766;2.900;2023-03-14T01:52:53;98280.44;;;10.68;83.47
60852;BME280;48553;50.766;2.900;2023-03-14T01:55:56;98286.31;;;10.66;83.63
60852;BME280;48553;50.766;2.900;2023-03-14T01:58:58;98273.41;;;10.67;84.00
60852;BME280;48553;50.766;2.900;2023-03-14T02:01:59;98271.47;;;10.68;83.73
60852;BME280;48553;50.766;2.900;2023-03-14T02:05:01;98272.63;;;10.66;83.96
60852;BME280;48553;50.766;2.900;2023-03-14T02:08:05;98278.13;;;10.63;84.33
60852;BME280;48553;50.766;2.900;2023-03-14T02:11:07;98266.75;;;10.64;84.18
60852;BME280;48553;50.766;2.900;2023-03-14T02:14:10;98245.63;;;10.65;84.29
60852;BME280;48553;50.766;2.900;2023-03-14T02:17:16;98251.91;;;10.62;84.46
60852;BME280;48553;50.766;2.900;2023-03-14T02:24:09;98258.56;;;10.61;84.53
60852;BME280;48553;50.766;2.900;2023-03-14T02:27:17;98246.47;;;10.58;84.58
60852;BME280;48553;50.766;2.900;2023-03-14T02:30:20;98240.59;;;10.56;84.68
60852;BME280;48553;50.766;2.900;2023-03-14T02:33:22;98242.53;;;10.59;84.55
60852;BME280;48553;50.766;2.900;2023-03-14T02:36:23;98232.00;;;10.54;84.94
60852;BME280;48553;50.766;2.900;2023-03-14T02:39:44;98228.47;;;10.54;84.88
60852;BME280;48553;50.766;2.900;2023-03-14T02:42:45;98220.66;;;10.49;85.11
60852;BME280;48553;50.766;2.900;2023-03-14T02:45:49;98230.06;;;10.48;85.28
60852;BME280;48553;50.766;2.900;2023-03-14T02:48:54;98226.94;;;10.49;85.53
60852;BME280;48553;50.766;2.900;2023-03-14T02:51:57;98227.72;;;10.50;85.51
60852;BME280;48553;50.766;2.900;2023-03-14T02:54:57;98226.13;;;10.52;85.51
60852;BME280;48553;50.766;2.900;2023-03-14T02:57:58;98238.66;;;10.50;85.73
60852;BME280;48553;50.766;2.900;2023-03-14T03:00:58;98236.31;;;10.48;86.00
60852;BME280;48553;50.766;2.900;2023-03-14T03:03:59;98244.13;;;10.50;86.02
60852;BME280;48553;50.766;2.900;2023-03-14T03:06:59;98233.97;;;10.50;86.01
60852;BME280;48553;50.766;2.900;2023-03-14T03:09:59;98239.81;;;10.49;86.41
60852;BME280;48553;50.766;2.900;2023-03-14T03:13:00;98238.66;;;10.50;86.44
60852;BME280;48553;50.766;2.900;2023-03-14T03:16:01;98247.25;;;10.48;86.61
60852;BME280;48553;50.766;2.900;2023-03-14T03:19:01;98253.13;;;10.47;86.92
60852;BME280;48553;50.766;2.900;2023-03-14T03:22:02;98254.69;;;10.51;86.67
60852;BME280;48553;50.766;2.900;2023-03-14T03:25:04;98237.47;;;10.51;86.93
60852;BME280;48553;50.766;2.900;2023-03-14T03:28:04;98235.53;;;10.48;87.28
60852;BME280;48553;50.766;2.900;2023-03-14T03:31:11;98237.47;;;10.51;87.17
60852;BME280;48553;50.766;2.900;2023-03-14T03:34:13;98235.53;;;10.48;87.30
60852;BME280;48553;50.766;2.900;2023-03-14T03:37:13;98237.50;;;10.43;87.40
60852;BME280;48553;50.766;2.900;2023-03-14T03:40:14;98234.00;;;10.43;87.87
60852;BME280;48553;50.766;2.900;2023-03-14T03:43:14;98232.03;;;10.43;87.84
60852;BME280;48553;50.766;2.900;2023-03-14T03:46:14;98234.00;;;10.43;87.85
60852;BME280;48553;50.766;2.900;2023-03-14T03:49:15;98234.00;;;10.39;88.09
60852;BME280;48553;50.766;2.900;2023-03-14T03:52:15;98237.13;;;10.41;87.85
60852;BME280;48553;50.766;2.900;2023-03-14T03:55:16;98232.03;;;10.40;87.79
60852;BME280;48553;50.766;2.900;2023-03-14T03:58:16;98236.31;;;10.44;87.77
60852;BME280;48553;50.766;2.900;2023-03-14T04:01:17;98233.22;;;10.39;87.83
60852;BME280;48553;50.766;2.900;2023-03-14T04:04:17;98238.69;;;10.39;88.05
60852;BME280;48553;50.766;2.900;2023-03-14T04:07:18;98248.44;;;10.40;87.78
60852;BME280;48553;50.766;2.900;2023-03-14T04:10:18;98250.84;;;10.38;88.03
60852;BME280;48553;50.766;2.900;2023-03-14T04:13:19;98251.22;;;10.36;88.00
60852;BME280;48553;50.766;2.900;2023-03-14T04:16:21;98244.16;;;10.39;87.92
60852;BME280;48553;50.766;2.900;2023-03-14T04:19:22;98246.50;;;10.37;87.96
60852;BME280;48553;50.766;2.900;2023-03-14T04:22:23;98253.97;;;10.36;88.16
60852;BME280;48553;50.766;2.900;2023-03-14T04:25:23;98248.47;;;10.36;88.18
60852;BME280;48553;50.766;2.900;2023-03-14T04:28:23;98248.47;;;10.36;88.23
60852;BME280;48553;50.766;2.900;2023-03-14T04:31:24;98252.03;;;10.33;88.22
60852;BME280;48553;50.766;2.900;2023-03-14T04:34:24;98253.56;;;10.31;88.58
60852;BME280;48553;50.766;2.900;2023-03-14T04:37:25;98252.03;;;10.33;88.54
60852;BME280;48553;50.766;2.900;2023-03-14T04:40:25;98262.16;;;10.33;88.44
60852;BME280;48553;50.766;2.900;2023-03-14T04:43:26;98264.91;;;10.33;88.71
60852;BME280;48553;50.766;2.900;2023-03-14T04:46:27;98274.31;;;10.32;88.74
60852;BME280;48553;50.766;2.900;2023-03-14T04:49:27;98280.56;;;10.32;88.78
60852;BME280;48553;50.766;2.900;2023-03-14T04:52:28;98280.56;;;10.29;89.17
60852;BME280;48553;50.766;2.900;2023-03-14T04:55:28;98277.03;;;10.32;89.12
60852;BME280;48553;50.766;2.900;2023-03-14T04:58:28;98341.97;;;10.31;89.46
60852;BME280;48553;50.766;2.900;2023-03-14T05:01:29;98333.38;;;10.29;89.47
60852;BME280;48553;50.766;2.900;2023-03-14T05:04:29;98353.69;;;10.24;88.46
60852;BME280;48553;50.766;2.900;2023-03-14T05:07:32;98363.44;;;10.15;87.41
60852;BME280;48553;50.766;2.900;2023-03-14T05:10:33;98368.94;;;10.11;86.82
60852;BME280;48553;50.766;2.900;2023-03-14T05:13:33;98379.09;;;9.96;86.67
60852;BME280;48553;50.766;2.900;2023-03-14T05:16:34;98399.00;;;9.97;86.43
60852;BME280;48553;50.766;2.900;2023-03-14T05:19:35;98401.38;;;9.91;85.66
60852;BME280;48553;50.766;2.900;2023-03-14T05:22:36;98413.84;;;9.85;85.44
60852;BME280;48553;50.766;2.900;2023-03-14T05:25:36;98419.31;;;9.78;85.35
60852;BME280;48553;50.766;2.900;2023-03-14T05:28:37;98439.66;;;9.77;85.40
60852;BME280;48553;50.766;2.900;2023-03-14T05:31:37;98455.66;;;9.75;85.43
60852;BME280;48553;50.766;2.900;2023-03-14T05:34:37;98462.28;;;9.74;85.16
60852;BME280;48553;50.766;2.900;2023-03-14T05:37:38;98475.97;;;9.74;85.46
60852;BME280;48553;50.766;2.900;2023-03-14T05:40:38;98483.75;;;9.72;85.35
60852;BME280;48553;50.766;2.900;2023-03-14T05:43:39;98498.59;;;9.67;85.55
60852;BME280;48553;50.766;2.900;2023-03-14T05:46:39;98504.03;;;9.60;85.46
60852;BME280;48553;50.766;2.900;2023-03-14T05:49:39;98521.22;;;9.57;85.67
60852;BME280;48553;50.766;2.900;2023-03-14T05:52:40;98540.00;;;9.58;85.20
60852;BME280;48553;50.766;2.900;2023-03-14T05:55:40;98543.06;;;9.53;85.34
60852;BME280;48553;50.766;2.900;2023-03-14T05:58:41;98555.59;;;9.54;85.50
60852;BME280;48553;50.766;2.900;2023-03-14T06:01:41;98562.22;;;9.50;85.20
60852;BME280;48553;50.766;2.900;2023-03-14T06:04:42;98571.16;;;9.47;85.12
60852;BME280;48553;50.766;2.900;2023-03-14T06:07:42;98575.84;;;9.46;85.00
60852;BME280;48553;50.766;2.900;2023-03-14T06:10:42;98589.13;;;9.44;84.96
60852;BME280;48553;50.766;2.900;2023-03-14T06:13:43;98594.94;;;9.39;84.75
60852;BME280;48553;50.766;2.900;2023-03-14T06:16:43;98603.94;;;9.36;84.89
60852;BME280;48553;50.766;2.900;2023-03-14T06:19:44;98636.72;;;9.36;84.92
60852;BME280;48553;50.766;2.900;2023-03-14T06:22:45;98625.78;;;9.36;84.63
60852;BME280;48553;50.766;2.900;2023-03-14T06:25:45;98627.66;;;9.28;84.55
60852;BME280;48553;50.766;2.900;2023-03-14T06:28:46;98660.84;;;9.23;83.97
60852;BME280;48553;50.766;2.900;2023-03-14T06:31:46;98681.91;;;9.23;84.04
60852;BME280;48553;50.766;2.900;2023-03-14T06:34:46;98689.72;;;9.20;83.70
60852;BME280;48553;50.766;2.900;2023-03-14T06:37:47;98718.16;;;9.16;83.78
60852;BME280;48553;50.766;2.900;2023-03-14T06:40:47;98731.06;;;9.15;83.54
60852;BME280;48553;50.766;2.900;2023-03-14T06:43:48;98734.16;;;9.14;83.34
60852;BME280;48553;50.766;2.900;2023-03-14T06:46:48;98747.44;;;9.15;82.90
60852;BME280;48553;50.766;2.900;2023-03-14T06:49:48;98759.88;;;9.09;82.53
60852;BME280;48553;50.766;2.900;2023-03-14T06:52:49;98760.94;;;9.01;82.01
60852;BME280;48553;50.766;2.900;2023-03-14T06:55:49;98767.59;;;9.00;82.20
60852;BME280;48553;50.766;2.900;2023-03-14T06:58:50;98785.13;;;8.99;82.02
60852;BME280;48553;50.766;2.900;2023-03-14T07:01:51;98798.75;;;8.95;81.81
60852;BME280;48553;50.766;2.900;2023-03-14T07:04:51;98811.94;;;8.90;81.66
60852;BME280;48553;50.766;2.900;2023-03-14T07:07:52;98806.06;;;8.88;81.37
60852;BME280;48553;50.766;2.900;2023-03-14T07:10:52;98816.59;;;8.86;80.82
60852;BME280;48553;50.766;2.900;2023-03-14T07:13:52;98820.47;;;8.85;80.81
60852;BME280;48553;50.766;2.900;2023-03-14T07:16:53;98855.56;;;8.83;80.64
60852;BME280;48553;50.766;2.900;2023-03-14T07:19:53;98844.63;;;8.79;80.53
60852;BME280;48553;50.766;2.900;2023-03-14T07:22:54;98869.91;;;8.76;80.34
60852;BME280;48553;50.766;2.900;2023-03-14T07:25:54;98878.88;;;8.76;80.20
60852;BME280;48553;50.766;2.900;2023-03-14T07:28:55;98886.63;;;8.71;80.03
60852;BME280;48553;50.766;2.900;2023-03-14T07:31:55;98897.19;;;8.72;79.94
60852;BME280;48553;50.766;2.900;2023-03-14T07:34:56;98905.22;;;8.62;79.07
60852;BME280;48553;50.766;2.900;2023-03-14T07:37:56;98920.81;;;8.61;79.17
60852;BME280;48553;50.766;2.900;2023-03-14T07:41:04;98939.53;;;8.59;79.55
60852;BME280;48553;50.766;2.900;2023-03-14T07:44:05;98944.56;;;8.57;79.13
60852;BME280;48553;50.766;2.900;2023-03-14T07:47:05;98964.00;;;8.52;78.79
60852;BME280;48553;50.766;2.900;2023-03-14T07:50:06;98979.19;;;8.53;79.12
60852;BME280;48553;50.766;2.900;2023-03-14T07:53:06;98983.53;;;8.54;78.91
60852;BME280;48553;50.766;2.900;2023-03-14T07:56:07;98989.69;;;8.51;78.86
60852;BME280;48553;50.766;2.900;2023-03-14T07:59:07;99004.44;;;8.46;78.70
60852;BME280;48553;50.766;2.900;2023-03-14T08:02:11;99014.94;;;8.44;78.77
60852;BME280;48553;50.766;2.900;2023-03-14T08:05:13;99029.00;;;8.46;79.01
60852;BME280;48553;50.766;2.900;2023-03-14T08:08:13;99023.19;;;8.48;79.16
60852;BME280;48553;50.766;2.900;2023-03-14T08:11:13;99034.81;;;8.45;78.76
60852;BME280;48553;50.766;2.900;2023-03-14T08:14:14;99050.94;;;8.50;78.48
60852;BME280;48553;50.766;2.900;2023-03-14T08:17:14;99057.47;;;8.45;78.42
60852;BME280;48553;50.766;2.900;2023-03-14T08:20:15;99073.84;;;8.45;78.33
60852;BME280;48553;50.766;2.900;2023-03-14T08:23:16;99079.25;;;8.42;78.62
60852;BME280;48553;50.766;2.900;2023-03-14T08:26:16;99091.81;;;8.46;78.50
60852;BME280;48553;50.766;2.900;2023-03-14T08:29:16;99103.03;;;8.41;78.27
60852;BME280;48553;50.766;2.900;2023-03-14T08:32:17;99106.47;;;8.38;77.85
60852;BME280;48553;50.766;2.900;2023-03-14T08:35:17;99113.78;;;8.34;77.55
60852;BME280;48553;50.766;2.900;2023-03-14T08:38:18;99131.72;;;8.35;77.92
60852;BME280;48553;50.766;2.900;2023-03-14T08:41:18;99134.84;;;8.33;77.84
60852;BME280;48553;50.766;2.900;2023-03-14T08:44:19;99142.66;;;8.35;77.91
60852;BME280;48553;50.766;2.900;2023-03-14T08:47:19;99155.94;;;8.36;77.89
60852;BME280;48553;50.766;2.900;2023-03-14T08:50:19;99157.63;;;8.41;77.80
60852;BME280;48553;50.766;2.900;2023-03-14T08:53:20;99160.91;;;8.50;77.57
60852;BME280;48553;50.766;2.900;2023-03-14T08:56:22;99170.47;;;8.60;77.63
60852;BME280;48553;50.766;2.900;2023-03-14T08:59:23;99182.25;;;8.64;77.52
60852;BME280;48553;50.766;2.900;2023-03-14T09:02:24;99188.56;;;8.68;77.11
60852;BME280;48553;50.766;2.900;2023-03-14T09:05:27;99205.25;;;8.63;77.35
60852;BME280;48553;50.766;2.900;2023-03-14T09:08:27;99219.19;;;8.58;77.04
60852;BME280;48553;50.766;2.900;2023-03-14T09:11:27;99221.56;;;8.60;76.85
60852;BME280;48553;50.766;2.900;2023-03-14T09:14:28;99236.78;;;8.61;76.81
60852;BME280;48553;50.766;2.900;2023-03-14T09:17:29;99232.41;;;8.56;76.68
60852;BME280;48553;50.766;2.900;2023-03-14T09:20:29;99244.97;;;8.61;76.40
60852;BME280;48553;50.766;2.900;2023-03-14T09:23:30;99247.00;;;8.64;76.77
60852;BME280;48553;50.766;2.900;2023-03-14T09:26:30;99254.31;;;8.60;76.47
60852;BME280;48553;50.766;2.900;2023-03-14T09:29:31;99273.09;;;8.61;76.34
60852;BME280;48553;50.766;2.900;2023-03-14T09:32:32;99282.16;;;8.65;76.27
60852;BME280;48553;50.766;2.900;2023-03-14T09:35:33;99282.94;;;8.66;75.95
60852;BME280;48553;50.766;2.900;2023-03-14T09:38:34;99292.34;;;8.68;76.04
60852;BME280;48553;50.766;2.900;2023-03-14T09:41:37;99293.09;;;8.65;76.26
60852;BME280;48553;50.766;2.900;2023-03-14T09:44:45;99297.81;;;8.68;76.16
60852;BME280;48553;50.766;2.900;2023-03-14T09:47:48;99316.50;;;8.66;76.50
60852;BME280;48553;50.766;2.900;2023-03-14T09:50:54;99318.06;;;8.67;76.07
60852;BME280;48553;50.766;2.900;2023-03-14T09:53:54;99336.06;;;8.68;76.24
60852;BME280;48553;50.766;2.900;2023-03-14T09:56:55;99339.22;;;8.70;76.30
60852;BME280;48553;50.766;2.900;2023-03-14T10:00:03;99348.97;;;8.71;75.66
60852;BME280;48553;50.766;2.900;2023-03-14T10:03:31;99342.00;;;8.74;75.22
60852;BME280;48553;50.766;2.900;2023-03-14T10:06:32;99345.97;;;8.76;75.11
60852;BME280;48553;50.766;2.900;2023-03-14T10:09:33;99349.13;;;8.78;75.13
60852;BME280;48553;50.766;2.900;2023-03-14T10:12:35;99357.75;;;8.81;74.96
60852;BME280;48553;50.766;2.900;2023-03-14T10:15:37;99363.22;;;8.81;74.89
60852;BME280;48553;50.766;2.900;2023-03-14T10:18:38;99362.53;;;8.84;75.45
60852;BME280;48553;50.766;2.900;2023-03-14T10:21:50;99389.47;;;8.85;75.71
60852;BME280;48553;50.766;2.900;2023-03-14T10:24:55;99381.66;;;8.84;75.45
60852;BME280;48553;50.766;2.900;2023-03-14T10:27:57;99403.41;;;8.80;75.34
60852;BME280;48553;50.766;2.900;2023-03-14T10:30:58;99408.44;;;8.78;75.49
60852;BME280;48553;50.766;2.900;2023-03-14T10:34:04;99417.41;;;8.78;75.56
60852;BME280;48553;50.766;2.900;2023-03-14T10:37:18;99431.06;;;8.78;75.25
60852;BME280;48553;50.766;2.900;2023-03-14T10:40:31;99430.63;;;8.76;75.21
60852;BME280;48553;50.766;2.900;2023-03-14T10:43:34;99445.31;;;8.68;74.94
60852;BME280;48553;50.766;2.900;2023-03-14T10:46:35;99453.16;;;8.70;74.86
60852;BME280;48553;50.766;2.900;2023-03-14T10:49:36;99454.63;;;8.67;75.17
60852;BME280;48553;50.766;2.900;2023-03-14T10:52:47;99461.97;;;8.63;75.16
60852;BME280;48553;50.766;2.900;2023-03-14T10:55:48;99467.88;;;8.65;75.45
60852;BME280;48553;50.766;2.900;2023-03-14T10:58:58;99472.16;;;8.66;75.56
60852;BME280;48553;50.766;2.900;2023-03-14T11:02:20;99489.28;;;8.63;74.90
60852;BME280;48553;50.766;2.900;2023-03-14T11:05:28;99496.59;;;8.59;75.18
60852;BME280;48553;50.766;2.900;2023-03-14T11:11:43;99516.03;;;8.57;76.08
60852;BME280;48553;50.766;2.900;2023-03-14T11:14:52;99522.22;;;8.54;76.98
60852;BME280;48553;50.766;2.900;2023-03-14T11:21:32;99541.34;;;8.54;78.16
60852;BME280;48553;50.766;2.900;2023-03-14T11:24:39;99545.63;;;8.55;78.80
60852;BME280;48553;50.766;2.900;2023-03-14T11:31:21;99563.19;;;8.54;79.00
60852;BME280;48553;50.766;2.900;2023-03-14T11:34:52;99564.31;;;8.53;79.03
60852;BME280;48553;50.766;2.900;2023-03-14T11:38:11;99582.97;;;8.51;79.15
60852;BME280;48553;50.766;2.900;2023-03-14T11:41:33;99595.41;;;8.49;79.10
60852;BME280;48553;50.766;2.900;2023-03-14T11:44:38;99597.94;;;8.42;78.79
60852;BME280;48553;50.766;2.900;2023-03-14T11:47:41;99608.75;;;8.38;79.05
60852;BME280;48553;50.766;2.900;2023-03-14T11:50:44;99618.34;;;8.32;79.33
60852;BME280;48553;50.766;2.900;2023-03-14T11:53:55;99612.44;;;8.30;79.16
60852;BME280;48553;50.766;2.900;2023-03-14T11:57:03;99623.34;;;8.30;79.24
60852;BME280;48553;50.766;2.900;2023-03-14T12:09:37;99655.53;;;8.24;79.70
60852;BME280;48553;50.766;2.900;2023-03-14T12:12:37;99652.13;;;8.27;80.03
60852;BME280;48553;50.766;2.900;2023-03-14T12:15:40;99671.25;;;8.27;79.88
60852;BME280;48553;50.766;2.900;2023-03-14T12:18:43;99673.97;;;8.27;80.13
60852;BME280;48553;50.766;2.900;2023-03-14T12:21:52;99677.38;;;8.24;80.19
60852;BME280;48553;50.766;2.900;2023-03-14T12:24:59;99687.50;;;8.24;80.25
60852;BME280;48553;50.766;2.900;2023-03-14T12:28:43;99698.78;;;8.22;80.49
60852;BME280;48553;50.766;2.900;2023-03-14T12:34:38;99707.66;;;8.19;80.67
60852;BME280;48553;50.766;2.900;2023-03-14T12:37:44;99723.03;;;8.11;80.91
60852;BME280;48553;50.766;2.900;2023-03-14T12:40:58;99722.44;;;8.06;80.93
60852;BME280;48553;50.766;2.900;2023-03-14T12:50:56;99775.91;;;8.07;80.94
60852;BME280;48553;50.766;2.900;2023-03-14T12:57:54;99818.31;;;7.92;80.34
60852;BME280;48553;50.766;2.900;2023-03-14T13:01:01;99832.41;;;7.94;80.23
60852;BME280;48553;50.766;2.900;2023-03-14T13:04:10;99849.56;;;7.94;80.28
60852;BME280;48553;50.766;2.900;2023-03-14T13:07:35;99863.91;;;7.91;80.04
60852;BME280;48553;50.766;2.900;2023-03-14T13:10:42;99863.09;;;7.91;79.98
60852;BME280;48553;50.766;2.900;2023-03-14T13:13:48;99869.44;;;7.83;80.11
60852;BME280;48553;50.766;2.900;2023-03-14T13:16:49;99886.16;;;7.81;79.85
60852;BME280;48553;50.766;2.900;2023-03-14T13:19:52;99894.69;;;7.80;79.90
60852;BME280;48553;50.766;2.900;2023-03-14T13:22:53;99886.28;;;7.85;80.19
60852;BME280;48553;50.766;2.900;2023-03-14T13:25:55;99892.75;;;7.80;80.38
60852;BME280;48553;50.766;2.900;2023-03-14T13:28:56;99901.16;;;7.75;80.51
60852;BME280;48553;50.766;2.900;2023-03-14T13:31:58;99912.06;;;7.75;80.40
60852;BME280;48553;50.766;2.900;2023-03-14T13:34:58;99902.53;;;7.81;80.34
60852;BME280;48553;50.766;2.900;2023-03-14T13:38:01;99914.56;;;7.80;80.36
60852;BME280;48553;50.766;2.900;2023-03-14T13:41:06;99926.63;;;7.79;80.79
60852;BME280;48553;50.766;2.900;2023-03-14T13:44:15;99942.53;;;7.77;80.64
60852;BME280;48553;50.766;2.900;2023-03-14T13:47:18;99951.72;;;7.72;80.77
60852;BME280;48553;50.766;2.900;2023-03-14T13:50:20;99960.69;;;7.73;80.90
60852;BME280;48553;50.766;2.900;2023-03-14T13:53:21;99966.16;;;7.73;80.61
60852;BME280;48553;50.766;2.900;2023-03-14T13:56:25;99975.56;;;7.63;80.34
60852;BME280;48553;50.766;2.900;2023-03-14T13:59:34;99994.28;;;7.65;80.42
60852;BME280;48553;50.766;2.900;2023-03-14T14:02:36;100007.81;;;7.61;80.20
60852;BME280;48553;50.766;2.900;2023-03-14T14:05:37;100025.03;;;7.53;80.21
60852;BME280;48553;50.766;2.900;2023-03-14T14:08:41;100036.59;;;7.50;79.86
60852;BME280;48553;50.766;2.900;2023-03-14T14:15:07;100025.56;;;7.46;79.49
60852;BME280;48553;50.766;2.900;2023-03-14T14:18:13;100028.91;;;7.52;79.39
60852;BME280;48553;50.766;2.900;2023-03-14T14:21:17;100029.81;;;7.56;79.71
60852;BME280;48553;50.766;2.900;2023-03-14T14:24:17;100052.28;;;7.53;79.67
60852;BME280;48553;50.766;2.900;2023-03-14T14:30:32;100060.94;;;7.55;79.61
60852;BME280;48553;50.766;2.900;2023-03-14T14:33:45;100061.25;;;7.53;79.88
60852;BME280;48553;50.766;2.900;2023-03-14T14:36:45;100062.09;;;7.54;80.27
60852;BME280;48553;50.766;2.900;2023-03-14T14:39:51;100068.66;;;7.53;80.15
60852;BME280;48553;50.766;2.900;2023-03-14T14:42:52;100053.91;;;7.54;79.98
60852;BME280;48553;50.766;2.900;2023-03-14T14:45:53;100081.63;;;7.56;79.98
60852;BME280;48553;50.766;2.900;2023-03-14T14:48:56;100102.31;;;7.57;80.31
60852;BME280;48553;50.766;2.900;2023-03-14T14:52:03;100106.31;;;7.60;80.59
60852;BME280;48553;50.766;2.900;2023-03-14T14:55:13;100118.34;;;7.59;80.36
60852;BME280;48553;50.766;2.900;2023-03-14T14:58:29;100132.00;;;7.59;80.55
60852;BME280;48553;50.766;2.900;2023-03-14T15:01:37;100130.53;;;7.61;80.45
60852;BME280;48553;50.766;2.900;2023-03-14T15:04:39;100134.03;;;7.62;80.63
60852;BME280;48553;50.766;2.900;2023-03-14T15:07:39;100132.91;;;7.63;80.36
60852;BME280;48553;50.766;2.900;2023-03-14T15:10:40;100143.81;;;7.63;80.49
60852;BME280;48553;50.766;2.900;2023-03-14T15:13:40;100157.91;;;7.65;80.33
60852;BME280;48553;50.766;2.900;2023-03-14T15:16:41;100150.22;;;7.67;80.56
60852;BME280;48553;50.766;2.900;2023-03-14T15:19:41;100159.53;;;7.66;80.77
60852;BME280;48553;50.766;2.900;2023-03-14T15:22:42;100172.03;;;7.67;80.47
60852;BME280;48553;50.766;2.900;2023-03-14T15:25:43;100170.56;;;7.69;80.75
60852;BME280;48553;50.766;2.900;2023-03-14T15:28:46;100178.91;;;7.73;80.94
60852;BME280;48553;50.766;2.900;2023-03-14T15:31:47;100179.00;;;7.77;81.22
60852;BME280;48553;50.766;2.900;2023-03-14T15:34:47;100189.41;;;7.83;81.26
60852;BME280;48553;50.766;2.900;2023-03-14T15:37:47;100186.16;;;7.90;80.83
60852;BME280;48553;50.766;2.900;2023-03-14T15:40:50;100190.63;;;7.94;80.92
60852;BME280;48553;50.766;2.900;2023-03-14T15:43:51;100196.53;;;7.97;80.59
60852;BME280;48553;50.766;2.900;2023-03-14T15:46:52;100201.22;;;7.96;81.10
60852;BME280;48553;50.766;2.900;2023-03-14T15:49:52;100187.25;;;7.98;81.17
60852;BME280;48553;50.766;2.900;2023-03-14T15:52:53;100199.16;;;7.93;80.96
60852;BME280;48553;50.766;2.900;2023-03-14T15:55:53;100205.59;;;7.88;81.30
60852;BME280;48553;50.766;2.900;2023-03-14T15:58:54;100216.03;;;7.86;81.23
60852;BME280;48553;50.766;2.900;2023-03-14T16:01:54;100221.97;;;7.88;81.44
60852;BME280;48553;50.766;2.900;2023-03-14T16:04:54;100220.34;;;7.87;81.25
60852;BME280;48553;50.766;2.900;2023-03-14T16:07:55;100221.03;;;7.84;81.23
60852;BME280;48553;50.766;2.900;2023-03-14T16:10:57;100219.09;;;7.85;81.33
60852;BME280;48553;50.766;2.900;2023-03-14T16:13:58;100240.13;;;7.84;81.57
60852;BME280;48553;50.766;2.900;2023-03-14T16:16:59;100242.84;;;7.84;81.50
60852;BME280;48553;50.766;2.900;2023-03-14T16:19:59;100252.63;;;7.85;81.59
60852;BME280;48553;50.766;2.900;2023-03-14T16:23:00;100258.56;;;7.87;81.55
60852;BME280;48553;50.766;2.900;2023-03-14T16:26:05;100267.88;;;7.86;81.54
60852;BME280;48553;50.766;2.900;2023-03-14T16:29:06;100265.47;;;7.85;81.67
60852;BME280;48553;50.766;2.900;2023-03-14T16:32:06;100269.00;;;7.85;81.67
60852;BME280;48553;50.766;2.900;2023-03-14T16:35:07;100261.28;;;7.87;81.47
60852;BME280;48553;50.766;2.900;2023-03-14T16:38:08;100271.41;;;7.87;81.29
60852;BME280;48553;50.766;2.900;2023-03-14T16:41:13;100281.03;;;7.84;81.44
60852;BME280;48553;50.766;2.900;2023-03-14T16:44:14;100294.22;;;7.82;81.03
60852;BME280;48553;50.766;2.900;2023-03-14T16:47:14;100295.34;;;7.81;81.32
60852;BME280;48553;50.766;2.900;2023-03-14T16:50:15;100299.66;;;7.82;81.11
60852;BME280;48553;50.766;2.900;2023-03-14T16:53:16;100308.03;;;7.77;81.25
60852;BME280;48553;50.766;2.900;2023-03-14T16:56:17;100313.03;;;7.75;81.02